Terminal Aerodrome Forecast
Issued by NWS Blacksburg, VA

Home | Current Version | Previous Version | Text Only | Print | Product List | Glossary On
Versions: 1 2 3 4 5 6 7 8 9 10 11 12 13 14
000
FTUS41 KRNK 230908 AAA
TAFLYH
TAF AMD
KLYH 230908Z 2309/2406 20007KT P6SM -SHRA OVC015
      TEMPO 2309/2311 4SM -SHRA OVC007
     FM231400 22009KT P6SM BKN060
     FM240300 20008KT P6SM SCT110=

USA.gov is the U.S. government's official web portal to all federal, state and local government web resources and services.